Home > Products > Valid Products > TAF

000
FTUS41 KCLE 282300
TAFTOL
TAF
KTOL 282325Z 2900/2924 24006KT P6SM SKC
     FM291400 20012G18KT P6SM SCT040 BKN150
     FM292200 21015G25KT 5SM -RA OVC025=



000
FTUS41 KCLE 282300
TAFCLE
TAF
KCLE 282325Z 2900/3006 30007KT P6SM SCT035
     FM290200 18003KT P6SM SKC
     FM291400 19012G18KT P6SM SCT040 BKN150
     FM292100 19018G26KT P6SM BKN040 OVC120=



000
FTUS41 KCLE 282300
TAFCAK
TAF
KCAK 282325Z 2900/2924 31008KT P6SM SCT035
     FM290200 20003KT P6SM SKC
     FM291400 19012G18KT P6SM SCT040 BKN200=



000
FTUS41 KCLE 282300
TAFYNG
TAF
KYNG 282325Z 2900/2924 27006KT P6SM SKC
     FM291500 19010KT P6SM BKN250=



000
FTUS41 KCLE 282300
TAFERI
TAF
KERI 282325Z 2900/2924 26008KT P6SM SKC
     FM291500 19010KT P6SM BKN250=



000
FTUS41 KCLE 282300
TAFMFD
TAF
KMFD 282325Z 2900/2924 27006KT P6SM SKC
     FM291400 19012G18KT P6SM SCT040 BKN150=



000
FTUS41 KCLE 282300
TAFFDY
TAF
KFDY 282325Z 2900/2924 27006KT P6SM SKC
     FM291400 20012G18KT P6SM SCT040 BKN150
     FM292200 21015G25KT 5SM -RA OVC025=



000
FTUS41 KCLE 282000 AAA
TAFCLE
TAF AMD
KCLE 282058Z 2821/2924 33012G18KT P6SM BKN035
     FM290300 18003KT P6SM SKC
     FM292100 19018G26KT P6SM BKN080 OVC150=



000
FTUS41 KCLE 281900 AAA
TAFERI
TAF AMD
KERI 281914Z 2819/2918 31010KT P6SM FEW040
     FM290200 26003KT P6SM SKC
     FM291500 19010KT P6SM SCT250=



000
FTUS41 KCLE 281900 AAA
TAFYNG
TAF AMD
KYNG 281913Z 2819/2918 31010G16KT P6SM SCT040
     FM290100 VRB03KT P6SM SKC
     FM291500 19009KT P6SM SCT250=



000
FTUS41 KCLE 281900 AAA
TAFTOL
TAF AMD
KTOL 281912Z 2819/2918 32008KT P6SM FEW045
     FM290000 VRB03KT P6SM SKC
     FM291500 20012KT P6SM BKN200=



000
FTUS41 KCLE 281900 AAA
TAFTOL
TAF AMD
KTOL 281912Z 2819/2918 32008KT P6SM FEW045
     FM290000 VRB03KT P6SM SKC
     FM291500 20012KT P6SM BKN200=



000
FTUS41 KCLE 281700
TAFMFD
TAF
KMFD 281725Z 2818/2918 34011KT P6SM BKN035
     FM290000 VRB03KT P6SM SKC
     FM291500 19012KT P6SM BKN250=



000
FTUS41 KCLE 281700
TAFYNG
TAF
KYNG 281725Z 2818/2918 33012G18KT P6SM BKN035
      TEMPO 2818/2821 BKN030
     FM290200 VRB03KT P6SM SKC
     FM291500 19009KT P6SM SCT250=



000
FTUS41 KCLE 281700
TAFCLE
TAF
KCLE 281725Z 2818/2924 35012G18KT P6SM SCT040
     FM290100 VRB03KT P6SM SKC
     FM291500 18011KT P6SM BKN250
     FM292100 19018G26KT P6SM BKN080 OVC150=



000
FTUS41 KCLE 281700
TAFTOL
TAF
KTOL 281725Z 2818/2918 34009KT P6SM FEW040
     FM290000 VRB03KT P6SM SKC
     FM291500 20012KT P6SM BKN200=



000
FTUS41 KCLE 281700
TAFCAK
TAF
KCAK 281725Z 2818/2918 34010G16KT P6SM SCT035
     FM290100 VRB03KT P6SM SKC
     FM291500 19010KT P6SM BKN250=



000
FTUS41 KCLE 281700
TAFFDY
TAF
KFDY 281725Z 2818/2918 36009KT P6SM SCT040
     FM290000 VRB03KT P6SM SKC
     FM291500 19014KT P6SM BKN200=



000
FTUS41 KCLE 281700
TAFERI
TAF
KERI 281725Z 2818/2918 34010KT P6SM FEW040
     FM290200 26003KT P6SM SKC
     FM291500 19010KT P6SM SCT250=



000
FTUS41 KCLE 281700
TAFCLE
TAF
KCLE 281725Z 2818/2924 35012G18KT P6SM SCT040
     FM290100 VRB03KT P6SM SKC
     FM291500 18011KT P6SM BKN250
     FM292100 19018G26KT P6SM BKN080 OVC150=



000
FTUS41 KCLE 281700
TAFYNG
TAF
KYNG 281725Z 2818/2918 33012G18KT P6SM BKN035
      TEMPO 2818/2821 BKN030
     FM290200 VRB03KT P6SM SKC
     FM291500 19009KT P6SM SCT250=



000
FTUS41 KCLE 281700
TAFFDY
TAF
KFDY 281725Z 2818/2918 36009KT P6SM SCT040
     FM290000 VRB03KT P6SM SKC
     FM291500 19014KT P6SM BKN200=



000
FTUS41 KCLE 281700
TAFCAK
TAF
KCAK 281725Z 2818/2918 34010G16KT P6SM SCT035
     FM290100 VRB03KT P6SM SKC
     FM291500 19010KT P6SM BKN250=



000
FTUS41 KCLE 281700
TAFMFD
TAF
KMFD 281725Z 2818/2918 34011KT P6SM BKN035
     FM290000 VRB03KT P6SM SKC
     FM291500 19012KT P6SM BKN250=



000
FTUS41 KCLE 281700
TAFTOL
TAF
KTOL 281725Z 2818/2918 34009KT P6SM FEW040
     FM290000 VRB03KT P6SM SKC
     FM291500 20012KT P6SM BKN200=



000
FTUS41 KCLE 281700
TAFERI
TAF
KERI 281725Z 2818/2918 34010KT P6SM FEW040
     FM290200 26003KT P6SM SKC
     FM291500 19010KT P6SM SCT250=



000
FTUS41 KCLE 281400 AAB
TAFCLE
TAF AMD
KCLE 281454Z 2815/2918 35014G20KT P6SM SCT040
     FM290100 18005KT P6SM SKC
     FM291200 18005KT P6SM BKN250=



000
FTUS41 KCLE 281400 AAB
TAFCLE
TAF AMD
KCLE 281454Z 2815/2918 35014G20KT P6SM SCT040
     FM290100 18005KT P6SM SKC
     FM291200 18005KT P6SM BKN250=



000
FTUS41 KCLE 281400 AAA
TAFYNG
TAF AMD
KYNG 281427Z 2814/2912 33012G18KT P6SM BKN035
      TEMPO 2814/2818 BKN030
     FM290200 VRB03KT P6SM SKC=



000
FTUS41 KCLE 281300 AAA
TAFMFD
TAF AMD
KMFD 281359Z 2814/2912 32010KT P6SM SCT025 BKN040
      TEMPO 2814/2816 2SM -SHSN BKN018
     FM281600 34010KT P6SM BKN035
     FM282300 VRB03KT P6SM SKC=



000
FTUS41 KCLE 281300 AAA
TAFFDY
TAF AMD
KFDY 281358Z 2814/2912 34009KT P6SM SCT040
     FM282300 VRB03KT P6SM SKC=



000
FTUS41 KCLE 281300 AAA
TAFTOL
TAF AMD
KTOL 281357Z 2814/2912 35010KT P6SM SCT040
     FM282300 VRB03KT P6SM SKC=



000
FTUS41 KCLE 281200 AAA
TAFCLE
TAF AMD
KCLE 281241Z 2813/2918 35012G18KT P6SM SCT035
     FM281500 34012G18KT P6SM BKN035
     FM290100 18005KT P6SM SKC
     FM291200 18005KT P6SM BKN250=



000
FTUS41 KCLE 281200 AAA
TAFCLE
TAF AMD
KCLE 281241Z 2813/2918 35012G18KT P6SM SCT035
     FM281500 34012G18KT P6SM BKN035
     FM290100 18005KT P6SM SKC
     FM291200 18005KT P6SM BKN250=



000
FTUS41 KCLE 281100
TAFERI
TAF
KERI 281140Z 2812/2912 33010KT P6SM -SHSN SCT020 OVC035
      TEMPO 2812/2814 5SM -SHSN OVC020
     FM281500 34010KT P6SM BKN035
     FM290200 26003KT P6SM SKC=



000
FTUS41 KCLE 281100
TAFCLE
TAF
KCLE 281140Z 2812/2918 34010KT P6SM BKN035
     FM281500 34012KT P6SM BKN035
     FM290100 18005KT P6SM SKC
     FM291200 18005KT P6SM BKN250=



000
FTUS41 KCLE 281100
TAFTOL
TAF
KTOL 281140Z 2812/2912 34005KT P6SM BKN040
     FM281700 34010KT P6SM FEW040
     FM282300 VRB03KT P6SM SKC=



000
FTUS41 KCLE 281100
TAFYNG
TAF
KYNG 281140Z 2812/2912 33010KT P6SM BKN035
     FM290200 VRB03KT P6SM SKC=



000
FTUS41 KCLE 281100
TAFMFD
TAF
KMFD 281140Z 2812/2912 32008KT 6SM -SHSN SCT018 BKN030
      TEMPO 2812/2814 1 1/2SM -SHSN BKN018
     FM281500 34010KT P6SM BKN035
     FM282300 VRB03KT P6SM SKC=



000
FTUS41 KCLE 281100
TAFFDY
TAF
KFDY 281140Z 2812/2912 34005KT P6SM BKN040
     FM281800 34010KT P6SM FEW040
     FM282300 VRB03KT P6SM SKC=



000
FTUS41 KCLE 281100
TAFTOL
TAF
KTOL 281140Z 2812/2912 34005KT P6SM BKN040
     FM281700 34010KT P6SM FEW040
     FM282300 VRB03KT P6SM SKC=



000
FTUS41 KCLE 281100
TAFERI
TAF
KERI 281140Z 2812/2912 33010KT P6SM -SHSN SCT020 OVC035
      TEMPO 2812/2814 5SM -SHSN OVC020
     FM281500 34010KT P6SM BKN035
     FM290200 26003KT P6SM SKC=



000
FTUS41 KCLE 281100
TAFCAK
TAF
KCAK 281140Z 2812/2912 34010KT P6SM SCT035
     FM281400 33012KT P6SM BKN035
     FM290100 VRB03KT P6SM SKC=



000
FTUS41 KCLE 281100
TAFMFD
TAF
KMFD 281140Z 2812/2912 32008KT 6SM -SHSN SCT018 BKN030
      TEMPO 2812/2814 1 1/2SM -SHSN BKN018
     FM281500 34010KT P6SM BKN035
     FM282300 VRB03KT P6SM SKC=



000
FTUS41 KCLE 281100
TAFYNG
TAF
KYNG 281140Z 2812/2912 33010KT P6SM BKN035
     FM290200 VRB03KT P6SM SKC=



000
FTUS41 KCLE 281100
TAFFDY
TAF
KFDY 281140Z 2812/2912 34005KT P6SM BKN040
     FM281800 34010KT P6SM FEW040
     FM282300 VRB03KT P6SM SKC=



000
FTUS41 KCLE 281100
TAFCLE
TAF
KCLE 281140Z 2812/2918 34010KT P6SM BKN035
     FM281500 34012KT P6SM BKN035
     FM290100 18005KT P6SM SKC
     FM291200 18005KT P6SM BKN250=



000
FTUS41 KCLE 281100
TAFCAK
TAF
KCAK 281140Z 2812/2912 34010KT P6SM SCT035
     FM281400 33012KT P6SM BKN035
     FM290100 VRB03KT P6SM SKC=



000
FTUS41 KCLE 281000 AAA
TAFCLE
TAF AMD
KCLE 281044Z 2811/2912 34010KT P6SM VCSH BKN035
     FM281400 34012KT P6SM BKN035
     FM290100 18005KT P6SM SKC=



000
FTUS41 KCLE 281000 AAA
TAFMFD
TAF AMD
KMFD 281035Z 2811/2906 32008KT 6SM -SHSN SCT018 BKN030
      TEMPO 2811/2814 2SM -SHSN BKN018
     FM281400 35010KT P6SM BKN035
     FM282200 VRB03KT P6SM SKC=



000
FTUS41 KCLE 281000 AAB
TAFYNG
TAF AMD
KYNG 281028Z 2810/2906 33010KT P6SM -SHSN BKN025
      TEMPO 2810/2813 5SM -SHSN
     FM281500 33010KT P6SM BKN035
     FM290100 VRB03KT P6SM SKC=



000
FTUS41 KCLE 281000 AAB
TAFYNG
TAF AMD
KYNG 281028Z 2810/2906 33010KT P6SM -SHSN BKN025
      TEMPO 2810/2813 5SM -SHSN
     FM281500 33010KT P6SM BKN035
     FM290100 VRB03KT P6SM SKC=



000
FTUS41 KCLE 280900 AAA
TAFCLE
TAF AMD
KCLE 280921Z 2809/2912 34008KT P6SM SCT035
     FM281300 34012KT P6SM BKN035
     FM290100 18005KT P6SM SKC=



000
FTUS41 KCLE 280900 AAA
TAFCLE
TAF AMD
KCLE 280921Z 2809/2912 34008KT P6SM SCT035
     FM281300 34012KT P6SM BKN035
     FM290100 18005KT P6SM SKC=



000
FTUS41 KCLE 280800 AAA
TAFERI
TAF AMD
KERI 280817Z 2808/2906 32010KT P6SM SCT020 OVC040
     FM281500 34010KT P6SM BKN035
     FM290300 26003KT P6SM SKC=



000
FTUS41 KCLE 280800 AAA
TAFERI
TAF AMD
KERI 280817Z 2808/2906 32010KT P6SM SCT020 OVC040
     FM281500 34010KT P6SM BKN035
     FM290300 26003KT P6SM SKC=



000
FTUS41 KCLE 280800 AAA
TAFYNG
TAF AMD
KYNG 280816Z 2808/2906 33010KT P6SM -SHSN BKN025
     FM281500 33010KT P6SM BKN035
     FM290100 VRB03KT P6SM SKC=



000
FTUS41 KCLE 280800 AAA
TAFYNG
TAF AMD
KYNG 280816Z 2808/2906 33010KT P6SM -SHSN BKN025
     FM281500 33010KT P6SM BKN035
     FM290100 VRB03KT P6SM SKC=



000
FTUS41 KCLE 280800 AAA
TAFCAK
TAF AMD
KCAK 280815Z 2808/2906 34010KT P6SM SCT030
     FM281500 33012KT P6SM BKN035
     FM290100 VRB03KT P6SM SKC=



000
FTUS41 KCLE 280800 AAA
TAFCAK
TAF AMD
KCAK 280815Z 2808/2906 34010KT P6SM SCT030
     FM281500 33012KT P6SM BKN035
     FM290100 VRB03KT P6SM SKC=



000
FTUS41 KCLE 280500
TAFFDY
TAF
KFDY 280539Z 2806/2906 36005KT P6SM SKC
     FM281000 36005KT P6SM BKN040
     FM281600 35010KT P6SM FEW040
     FM282300 VRB03KT P6SM SKC=



000
FTUS41 KCLE 280500
TAFERI
TAF
KERI 280539Z 2806/2906 32010KT P6SM SCT020 OVC040
      TEMPO 2806/2809 6SM -SHSN OVC020
     FM281500 34010KT P6SM BKN035
     FM290300 26003KT P6SM SKC=



000
FTUS41 KCLE 280500
TAFMFD
TAF
KMFD 280539Z 2806/2906 36008KT P6SM BKN030
      TEMPO 2806/2810 6SM -SHSN
     FM281400 35010KT P6SM BKN035
     FM282200 VRB03KT P6SM SKC=



000
FTUS41 KCLE 280500
TAFCLE
TAF
KCLE 280539Z 2806/2912 35010KT P6SM BKN035
     FM290100 18005KT P6SM SKC=



000
FTUS41 KCLE 280500
TAFCAK
TAF
KCAK 280539Z 2806/2906 34010KT P6SM BKN025
     FM281500 33012KT P6SM BKN035
     FM290100 VRB03KT P6SM SKC=



000
FTUS41 KCLE 280500
TAFYNG
TAF
KYNG 280539Z 2806/2906 33010KT P6SM -SHSN BKN035
     FM281500 33010KT P6SM BKN035
     FM290100 VRB03KT P6SM SKC=



000
FTUS41 KCLE 280500
TAFFDY
TAF
KFDY 280539Z 2806/2906 36005KT P6SM SKC
     FM281000 36005KT P6SM BKN040
     FM281600 35010KT P6SM FEW040
     FM282300 VRB03KT P6SM SKC=



000
FTUS41 KCLE 280500
TAFTOL
TAF
KTOL 280539Z 2806/2906 36005KT P6SM SKC
     FM280900 36005KT P6SM BKN040
     FM281500 35010KT P6SM FEW040
     FM282300 VRB03KT P6SM SKC=



000
FTUS41 KCLE 280500
TAFYNG
TAF
KYNG 280539Z 2806/2906 33010KT P6SM -SHSN BKN035
     FM281500 33010KT P6SM BKN035
     FM290100 VRB03KT P6SM SKC=



000
FTUS41 KCLE 280500
TAFCAK
TAF
KCAK 280539Z 2806/2906 34010KT P6SM BKN025
     FM281500 33012KT P6SM BKN035
     FM290100 VRB03KT P6SM SKC=



000
FTUS41 KCLE 280500
TAFTOL
TAF
KTOL 280539Z 2806/2906 36005KT P6SM SKC
     FM280900 36005KT P6SM BKN040
     FM281500 35010KT P6SM FEW040
     FM282300 VRB03KT P6SM SKC=



000
FTUS41 KCLE 280500
TAFERI
TAF
KERI 280539Z 2806/2906 32010KT P6SM SCT020 OVC040
      TEMPO 2806/2809 6SM -SHSN OVC020
     FM281500 34010KT P6SM BKN035
     FM290300 26003KT P6SM SKC=



000
FTUS41 KCLE 280500
TAFMFD
TAF
KMFD 280539Z 2806/2906 36008KT P6SM BKN030
      TEMPO 2806/2810 6SM -SHSN
     FM281400 35010KT P6SM BKN035
     FM282200 VRB03KT P6SM SKC=



000
FTUS41 KCLE 280500
TAFCLE
TAF
KCLE 280539Z 2806/2912 35010KT P6SM BKN035
     FM290100 18005KT P6SM SKC=



000
FTUS41 KCLE 280400 AAA
TAFERI
TAF AMD
KERI 280406Z 2804/2824 30010KT P6SM SCT020 OVC040
      TEMPO 2804/2807 6SM -SHSN OVC020
     FM280700 35008KT P6SM OVC030
     FM281500 36010KT P6SM BKN035=



000
FTUS41 KCLE 280400 AAA
TAFERI
TAF AMD
KERI 280406Z 2804/2824 30010KT P6SM SCT020 OVC040
      TEMPO 2804/2807 6SM -SHSN OVC020
     FM280700 35008KT P6SM OVC030
     FM281500 36010KT P6SM BKN035=



000
FTUS41 KCLE 280200 AAA
TAFCLE
TAF AMD
KCLE 280253Z 2803/2906 36012KT 6SM -SN OVC035
      TEMPO 2803/2806 5SM -SN BKN025
     FM280600 35010KT P6SM OVC035
     FM281500 34010KT P6SM SCT035=



000
FTUS41 KCLE 280200 AAA
TAFCLE
TAF AMD
KCLE 280253Z 2803/2906 36012KT 6SM -SN OVC035
      TEMPO 2803/2806 5SM -SN BKN025
     FM280600 35010KT P6SM OVC035
     FM281500 34010KT P6SM SCT035=



000
FTUS41 KCLE 280200 AAA
TAFMFD
TAF AMD
KMFD 280204Z 2802/2824 36010KT 1 1/2SM -SN OVC010
      TEMPO 2802/2804 3/4SM -SN BKN008
     FM280400 35010KT 3SM -SN SCT015 OVC025
      TEMPO 2804/2806 2SM -SN BKN015
     FM280600 35010KT P6SM OVC030
     FM281400 35010KT P6SM BKN035=



000
FTUS41 KCLE 272300
TAFYNG
TAF
KYNG 272340Z 2800/2824 35014KT 3SM -SN OVC015
      TEMPO 2800/2803 6SM -SN SCT015 OVC025
     FM280300 33012KT 6SM -SN OVC030
     FM280600 33010KT P6SM OVC035
     FM281700 33010KT P6SM SCT035=



000
FTUS41 KCLE 272300
TAFCLE
TAF
KCLE 272340Z 2800/2906 36014KT 6SM -SN OVC035
      TEMPO 2800/2804 5SM -SN BKN025
     FM280400 35010KT P6SM OVC035
     FM281500 34010KT P6SM SCT035=



000
FTUS41 KCLE 272300
TAFMFD
TAF
KMFD 272340Z 2800/2824 34010KT 2SM -SN BKN015 OVC025
      TEMPO 2800/2802 3/4SM -SN BKN008 OVC012
     FM280200 34010KT 3SM -SN SCT015 OVC025
      TEMPO 2802/2806 2SM -SN BKN015
     FM280600 35010KT P6SM OVC030
     FM281400 35010KT P6SM BKN035=



000
FTUS41 KCLE 272300
TAFYNG
TAF
KYNG 272340Z 2800/2824 35014KT 3SM -SN OVC015
      TEMPO 2800/2803 6SM -SN SCT015 OVC025
     FM280300 33012KT 6SM -SN OVC030
     FM280600 33010KT P6SM OVC035
     FM281700 33010KT P6SM SCT035=



000
FTUS41 KCLE 272300
TAFFDY
TAF
KFDY 272340Z 2800/2824 35010KT P6SM VCSH BKN060
     FM280400 36010KT P6SM SCT060=



000
FTUS41 KCLE 272300
TAFCLE
TAF
KCLE 272340Z 2800/2906 36014KT 6SM -SN OVC035
      TEMPO 2800/2804 5SM -SN BKN025
     FM280400 35010KT P6SM OVC035
     FM281500 34010KT P6SM SCT035=



000
FTUS41 KCLE 272300
TAFCAK
TAF
KCAK 272340Z 2800/2824 36014KT 3SM -SN SCT015 OVC020
      TEMPO 2800/2803 6SM -SN BKN015
     FM280400 34010KT P6SM OVC035
     FM281500 33012KT P6SM SCT035=



000
FTUS41 KCLE 272300
TAFERI
TAF
KERI 272340Z 2800/2824 32014KT 3SM -SN OVC025
     FM280600 35008KT P6SM OVC030
     FM281500 36010KT P6SM BKN035=



000
FTUS41 KCLE 272300
TAFTOL
TAF
KTOL 272340Z 2800/2824 36008KT P6SM VCSH BKN060
     FM280300 36008KT P6SM SCT060=



000
FTUS41 KCLE 272300
TAFMFD
TAF
KMFD 272340Z 2800/2824 34010KT 2SM -SN BKN015 OVC025
      TEMPO 2800/2802 3/4SM -SN BKN008 OVC012
     FM280200 34010KT 3SM -SN SCT015 OVC025
      TEMPO 2802/2806 2SM -SN BKN015
     FM280600 35010KT P6SM OVC030
     FM281400 35010KT P6SM BKN035=



000
FTUS41 KCLE 272300
TAFCAK
TAF
KCAK 272340Z 2800/2824 36014KT 3SM -SN SCT015 OVC020
      TEMPO 2800/2803 6SM -SN BKN015
     FM280400 34010KT P6SM OVC035
     FM281500 33012KT P6SM SCT035=



000
FTUS41 KCLE 272300
TAFFDY
TAF
KFDY 272340Z 2800/2824 35010KT P6SM VCSH BKN060
     FM280400 36010KT P6SM SCT060=



000
FTUS41 KCLE 272300
TAFERI
TAF
KERI 272340Z 2800/2824 32014KT 3SM -SN OVC025
     FM280600 35008KT P6SM OVC030
     FM281500 36010KT P6SM BKN035=



000
FTUS41 KCLE 272300
TAFTOL
TAF
KTOL 272340Z 2800/2824 36008KT P6SM VCSH BKN060
     FM280300 36008KT P6SM SCT060=



000
FTUS41 KCLE 272100 AAA
TAFCAK
TAF AMD
KCAK 272129Z 2721/2818 33013KT 3SM -SN OVC020
      TEMPO 2721/2724 2SM -SN BKN018
     FM280000 34010KT 6SM -SN OVC030
     FM280400 34010KT P6SM OVC035
     FM281500 33012KT P6SM SCT035=



000
FTUS41 KCLE 272100 AAA
TAFCAK
TAF AMD
KCAK 272129Z 2721/2818 33013KT 3SM -SN OVC020
      TEMPO 2721/2724 2SM -SN BKN018
     FM280000 34010KT 6SM -SN OVC030
     FM280400 34010KT P6SM OVC035
     FM281500 33012KT P6SM SCT035=



000
FTUS41 KCLE 272100 AAA
TAFYNG
TAF AMD
KYNG 272127Z 2721/2818 33012KT 1 1/2SM -SN BKN015 OVC030
      TEMPO 2722/2724 3SM -SN SCT015
     FM280000 33011KT 6SM -SN OVC030
     FM280500 33010KT P6SM OVC035
     FM281700 33010KT P6SM SCT035=



000
FTUS41 KCLE 272100 AAA
TAFYNG
TAF AMD
KYNG 272127Z 2721/2818 33012KT 1 1/2SM -SN BKN015 OVC030
      TEMPO 2722/2724 3SM -SN SCT015
     FM280000 33011KT 6SM -SN OVC030
     FM280500 33010KT P6SM OVC035
     FM281700 33010KT P6SM SCT035=



000
FTUS41 KCLE 272100 AAC
TAFCLE
TAF AMD
KCLE 272100Z 2721/2824 35014KT 5SM -SN SCT015 OVC025
      TEMPO 2721/2723 2SM -SHSN BKN015
     FM272300 36014KT 6SM -SN OVC030
     FM280400 35010KT P6SM OVC030
     FM281500 34010KT P6SM SCT035=



000
FTUS41 KCLE 272000 AAB
TAFMFD
TAF AMD
KMFD 272019Z 2720/2818 33010KT 3SM -SN SCT015 OVC025
      TEMPO 2720/2723 1 1/2SM -SN OVC015
     FM280100 34010KT P6SM OVC030
     FM280900 35010KT P6SM BKN030
     FM281500 35010KT P6SM SCT030 BKN035=



000
FTUS41 KCLE 271900 AAB
TAFCLE
TAF AMD
KCLE 271952Z 2720/2824 33010KT 1/2SM SN BKN015 OVC025
     FM272030 34010KT 2SM -SN BKN015 OVC025
      TEMPO 2721/2722 5SM -SHSN SCT015 OVC025
     FM272200 36014KT P6SM BKN035
      TEMPO 2723/2803 -SN BKN030
     FM281500 34010KT P6SM SCT035=



000
FTUS41 KCLE 271900 AAB
TAFCLE
TAF AMD
KCLE 271952Z 2720/2824 33010KT 1/2SM SN BKN015 OVC025
     FM272030 34010KT 2SM -SN BKN015 OVC025
      TEMPO 2721/2722 5SM -SHSN SCT015 OVC025
     FM272200 36014KT P6SM BKN035
      TEMPO 2723/2803 -SN BKN030
     FM281500 34010KT P6SM SCT035=



000
FTUS41 KCLE 271900 AAA
TAFERI
TAF AMD
KERI 271915Z 2719/2818 29010KT P6SM VCSH OVC015
      TEMPO 2719/2722 2SM -SN
     FM272200 32012KT P6SM VCSH BKN020
      TEMPO 2722/2802 BKN015 OVC020
     FM281500 36010KT P6SM BKN035=



000
FTUS41 KCLE 271900 AAA
TAFERI
TAF AMD
KERI 271915Z 2719/2818 29010KT P6SM VCSH OVC015
      TEMPO 2719/2722 2SM -SN
     FM272200 32012KT P6SM VCSH BKN020
      TEMPO 2722/2802 BKN015 OVC020
     FM281500 36010KT P6SM BKN035=



000
FTUS41 KCLE 271900 AAA
TAFCLE
TAF AMD
KCLE 271914Z 2719/2824 33010KT 2SM -SN BKN015 OVC025
      TEMPO 2720/2722 5SM -SHSN SCT015 OVC025
     FM272200 36014KT P6SM BKN035
      TEMPO 2723/2803 -SN BKN030
     FM281500 34010KT P6SM SCT035=



000
FTUS41 KCLE 271900 AAA
TAFCLE
TAF AMD
KCLE 271914Z 2719/2824 33010KT 2SM -SN BKN015 OVC025
      TEMPO 2720/2722 5SM -SHSN SCT015 OVC025
     FM272200 36014KT P6SM BKN035
      TEMPO 2723/2803 -SN BKN030
     FM281500 34010KT P6SM SCT035=



000
FTUS41 KCLE 271900 AAA
TAFMFD
TAF AMD
KMFD 271913Z 2719/2818 31010KT 6SM -SN OVC030
     FM280100 01010KT P6SM OVC035
     FM280900 35010KT P6SM BKN030
     FM281500 35010KT P6SM SCT030 BKN035=



000
FTUS41 KCLE 271900 AAA
TAFMFD
TAF AMD
KMFD 271913Z 2719/2818 31010KT 6SM -SN OVC030
     FM280100 01010KT P6SM OVC035
     FM280900 35010KT P6SM BKN030
     FM281500 35010KT P6SM SCT030 BKN035=



000
FTUS41 KCLE 271900 AAA
TAFFDY
TAF AMD
KFDY 271911Z 2719/2818 33011KT P6SM VCSH SCT030 OVC035
     FM280200 01008KT P6SM SCT050=



000
FTUS41 KCLE 271900 AAA
TAFFDY
TAF AMD
KFDY 271911Z 2719/2818 33011KT P6SM VCSH SCT030 OVC035
     FM280200 01008KT P6SM SCT050=



000
FTUS41 KCLE 271700
TAFMFD
TAF
KMFD 271731Z 2718/2818 33015KT P6SM -SN OVC030
     FM280100 01010KT P6SM OVC035
     FM280900 35010KT P6SM BKN030
     FM281500 35010KT P6SM SCT030 BKN035=



000
FTUS41 KCLE 271700
TAFCAK
TAF
KCAK 271731Z 2718/2818 34013KT 5SM -SN OVC020
      TEMPO 2718/2721 2SM -SN
     FM280300 36010KT P6SM BKN035
      TEMPO 2809/2813 BKN030
     FM281500 33012KT P6SM SCT035=



000
FTUS41 KCLE 271700
TAFYNG
TAF
KYNG 271731Z 2718/2818 31012KT 6SM -SN BKN025 OVC040
      TEMPO 2718/2721 3SM -SN
     FM272300 34011KT P6SM BKN030 OVC040
      TEMPO 2802/2806 SCT030 OVC040
     FM281700 33010KT P6SM SCT035=



000
FTUS41 KCLE 271700
TAFFDY
TAF
KFDY 271731Z 2718/2818 33015KT P6SM SCT030 OVC035
     FM280200 01008KT P6SM SCT050=



000
FTUS41 KCLE 271700
TAFERI
TAF
KERI 271731Z 2718/2818 29010KT P6SM VCSH OVC015
     FM272200 32012KT P6SM VCSH BKN020
      TEMPO 2722/2802 BKN015 OVC020
     FM281500 36010KT P6SM BKN035=



000
FTUS41 KCLE 271700
TAFTOL
TAF
KTOL 271731Z 2718/2818 34012KT P6SM VCSH SCT030 OVC035
     FM280200 01007KT P6SM SCT050=



000
FTUS41 KCLE 271700
TAFCLE
TAF
KCLE 271731Z 2718/2824 32010KT 2SM -SN BKN015 OVC025
      TEMPO 2720/2722 5SM -SHSN SCT015 OVC025
     FM272200 36014KT P6SM BKN035
      TEMPO 2723/2803 -SN BKN030
     FM281500 34010KT P6SM SCT035=



000
FTUS41 KCLE 271700
TAFFDY
TAF
KFDY 271731Z 2718/2818 33015KT P6SM SCT030 OVC035
     FM280200 01008KT P6SM SCT050=



000
FTUS41 KCLE 271700
TAFMFD
TAF
KMFD 271731Z 2718/2818 33015KT P6SM -SN OVC030
     FM280100 01010KT P6SM OVC035
     FM280900 35010KT P6SM BKN030
     FM281500 35010KT P6SM SCT030 BKN035=



000
FTUS41 KCLE 271700
TAFCAK
TAF
KCAK 271731Z 2718/2818 34013KT 5SM -SN OVC020
      TEMPO 2718/2721 2SM -SN
     FM280300 36010KT P6SM BKN035
      TEMPO 2809/2813 BKN030
     FM281500 33012KT P6SM SCT035=



000
FTUS41 KCLE 271700
TAFCLE
TAF
KCLE 271731Z 2718/2824 32010KT 2SM -SN BKN015 OVC025
      TEMPO 2720/2722 5SM -SHSN SCT015 OVC025
     FM272200 36014KT P6SM BKN035
      TEMPO 2723/2803 -SN BKN030
     FM281500 34010KT P6SM SCT035=



000
FTUS41 KCLE 271700
TAFTOL
TAF
KTOL 271731Z 2718/2818 34012KT P6SM VCSH SCT030 OVC035
     FM280200 01007KT P6SM SCT050=



000
FTUS41 KCLE 271700
TAFERI
TAF
KERI 271731Z 2718/2818 29010KT P6SM VCSH OVC015
     FM272200 32012KT P6SM VCSH BKN020
      TEMPO 2722/2802 BKN015 OVC020
     FM281500 36010KT P6SM BKN035=



000
FTUS41 KCLE 271700
TAFYNG
TAF
KYNG 271731Z 2718/2818 31012KT 6SM -SN BKN025 OVC040
      TEMPO 2718/2721 3SM -SN
     FM272300 34011KT P6SM BKN030 OVC040
      TEMPO 2802/2806 SCT030 OVC040
     FM281700 33010KT P6SM SCT035=



000
FTUS41 KCLE 271500 AAC
TAFCLE
TAF AMD
KCLE 271539Z 2716/2818 32010KT 5SM -SN SCT015 OVC025
     FM271700 36012KT 2SM -SN BKN015 OVC025
      TEMPO 2720/2722 5SM -SHSN SCT015 OVC025
     FM272200 36014KT P6SM BKN035
      TEMPO 2723/2803 -SN BKN030
     FM281500 34010KT P6SM SCT035=



000
FTUS41 KCLE 271500 AAA
TAFERI
TAF AMD
KERI 271507Z 2715/2812 30010KT P6SM -SN OVC015
     FM272100 32014KT 4SM -SHSN BKN015
     FM280000 32010KT P6SM OVC050
     FM280300 31007KT P6SM BKN250=



000
FTUS41 KCLE 271500 AAA
TAFYNG
TAF AMD
KYNG 271505Z 2715/2812 33012KT 2SM -SN OVC012
      TEMPO 2716/2719 3SM -SN
     FM271900 33012KT 6SM -SN OVC020
     FM280900 34009KT P6SM OVC025=



000
FTUS41 KCLE 271500 AAA
TAFCAK
TAF AMD
KCAK 271503Z 2715/2812 36013KT 2SM -SN OVC015
      TEMPO 2716/2718 3SM -SN
     FM271800 36013KT P6SM OVC020
      TEMPO 2720/2724 3SM -SN
     FM280300 34010KT P6SM OVC100
     FM280600 32008KT P6SM SCT250=



000
FTUS41 KCLE 271400 AAB
TAFCLE
TAF AMD
KCLE 271455Z 2715/2818 34012KT 5SM -SN SCT015 OVC025
      TEMPO 2715/2716 2SM -SN
     FM272200 36014KT P6SM BKN035
      TEMPO 2723/2803 -SN BKN030
     FM281500 34010KT P6SM SCT035=



000
FTUS41 KCLE 271200 AAA
TAFCLE
TAF AMD
KCLE 271259Z 2713/2818 34012KT 5SM -SN BKN015 OVC025
      TEMPO 2713/2715 2SM -SN
     FM271700 34012KT 6SM -SN SCT015 OVC025
     FM272200 36014KT P6SM BKN035
      TEMPO 2723/2803 -SN BKN030
     FM281500 34010KT P6SM SCT035=



000
FTUS41 KCLE 271200 AAA
TAFMFD
TAF AMD
KMFD 271252Z 2713/2812 34015KT P6SM -SN OVC030
     FM271900 33012KT P6SM BKN035
     FM272300 01010KT P6SM OVC050
      TEMPO 2800/2804 -SN OVC030=



000
FTUS41 KCLE 271200 AAA
TAFFDY
TAF AMD
KFDY 271248Z 2713/2812 33015KT P6SM BKN045
      TEMPO 2715/2719 BKN030 OVC045
     FM271900 34010G20KT P6SM BKN035
     FM280000 36009KT P6SM BKN050
     FM280200 01008KT P6SM SKC=



000
FTUS41 KCLE 271200 AAA
TAFTOL
TAF AMD
KTOL 271243Z 2713/2812 35010KT P6SM -SN OVC025
     FM272000 34010G20KT P6SM VCSH BKN035
      TEMPO 2722/2802 -SN OVC030
     FM280300 36007KT P6SM BKN050=



000
FTUS41 KCLE 271100
TAFCAK
TAF
KCAK 271122Z 2712/2812 33005KT P6SM -SN OVC015
     FM271600 31010KT P6SM BKN035
     FM280000 35010KT P6SM OVC050
     FM280300 34010KT P6SM OVC100
     FM280600 32008KT P6SM SCT250=



000
FTUS41 KCLE 271100
TAFERI
TAF
KERI 271122Z 2712/2812 29007KT P6SM -SN OVC007
     FM271600 30008KT P6SM OVC015
     FM272100 31012KT 4SM -SHSN BKN015
     FM280000 32008KT P6SM OVC050
     FM280300 31007KT P6SM BKN250=



000
FTUS41 KCLE 271100
TAFCLE
TAF
KCLE 271122Z 2712/2818 34012KT P6SM BKN015 OVC025
      TEMPO 2712/2714 -SN
     FM272200 34014KT P6SM OVC050
     FM280000 34012KT P6SM BKN035
     FM280300 35008KT P6SM OVC050
     FM281500 34010KT P6SM SCT250=



000
FTUS41 KCLE 271100
TAFTOL
TAF
KTOL 271122Z 2712/2812 34010KT P6SM OVC045
     FM271300 31009KT P6SM -SN OVC025
     FM271500 34012KT P6SM SCT250
     FM271800 34010G20KT P6SM BKN045
     FM272300 36007KT P6SM BKN050=



000
FTUS41 KCLE 271100
TAFFDY
TAF
KFDY 271122Z 2712/2812 33009KT P6SM OVC045
     FM271500 31009KT P6SM BKN035
     FM271900 34010G20KT P6SM BKN035
     FM280000 36009KT P6SM BKN050
     FM280200 01008KT P6SM SKC=



000
FTUS41 KCLE 271100
TAFMFD
TAF
KMFD 271122Z 2712/2812 34012KT P6SM OVC030
     FM271600 32010KT P6SM OVC022
     FM271900 33010KT P6SM BKN035
     FM272100 32010G15KT P6SM OVC050
     FM272300 34008KT P6SM OVC050
     FM280800 35006KT P6SM SKC=



000
FTUS41 KCLE 271100
TAFYNG
TAF
KYNG 271122Z 2712/2812 31010KT P6SM -SN OVC012
     FM271700 31010KT P6SM OVC050
     FM280900 34009KT P6SM OVC025=



000
FTUS41 KCLE 270900 AAA
TAFYNG
TAF AMD
KYNG 270920Z 2709/2806 31010KT P6SM OVC045
     FM271700 31010KT P6SM OVC025
     FM280300 31009KT P6SM OVC100=



000
FTUS41 KCLE 270900 AAA
TAFMFD
TAF AMD
KMFD 270919Z 2709/2806 30007KT P6SM OVC045
     FM271600 32010KT P6SM OVC022
     FM271900 33010KT P6SM BKN035
     FM272300 34008KT P6SM OVC050=



000
FTUS41 KCLE 270900 AAA
TAFCAK
TAF AMD
KCAK 270919Z 2709/2806 30008KT P6SM OVC045
     FM271700 31010KT P6SM BKN035
     FM280000 35010KT P6SM OVC050
     FM280300 34010KT P6SM OVC100=



000
FTUS41 KCLE 270900 AAA
TAFCLE
TAF AMD
KCLE 270918Z 2709/2812 35008KT P6SM BKN012 OVC025
      TEMPO 2710/2712 -SN
     FM272000 34014KT P6SM -SN OVC030
     FM280000 35008KT P6SM BKN035
     FM280600 35011KT P6SM OVC050=



000
FTUS41 KCLE 270500 CCA
TAFCAK
TAF COR
KCAK 270551Z 2706/2806 27006KT 4SM BR SCT020 OVC045
     FM271000 30008KT P6SM OVC018
     FM271700 31010KT P6SM BKN035
     FM280000 35010KT P6SM OVC050
     FM280300 34010KT P6SM OVC100=



000
FTUS41 KCLE 270500 CCA
TAFCAK
TAF COR
KCAK 270551Z 2706/2806 27006KT 4SM BR SCT020 OVC045
     FM271000 30008KT P6SM OVC018
     FM271700 31010KT P6SM BKN035
     FM280000 35010KT P6SM OVC050
     FM280300 34010KT P6SM OVC100=



000
FTUS41 KCLE 270500
TAFMFD
TAF
KMFD 270521Z 2706/2806 30007KT P6SM OVC045
     FM270900 31010KT P6SM BKN018
     FM271600 32010KT P6SM OVC022
     FM271900 33010KT P6SM BKN035
     FM272300 34008KT P6SM OVC050=



000
FTUS41 KCLE 270500
TAFERI
TAF
KERI 270521Z 2706/2806 24005KT 6SM BR OVC045
      TEMPO 2706/2708 5SM BR BKN004
     FM270800 29007KT P6SM VCSH SCT010 OVC015
     FM271600 30008KT 6SM -SHSN SCT015 OVC022
     FM271900 31010KT 4SM -SHSN BKN015
     FM280000 32008KT P6SM OVC050
     FM280300 31007KT P6SM BKN250=



000
FTUS41 KCLE 270500
TAFTOL
TAF
KTOL 270521Z 2706/2806 31008KT P6SM OVC045
     FM271000 33010KT P6SM BKN020
     FM271500 31009KT P6SM BKN035
     FM280000 01007KT P6SM BKN100
     FM280400 03006KT P6SM SCT250=



000
FTUS41 KCLE 270500
TAFCLE
TAF
KCLE 270521Z 2706/2812 30008KT P6SM SCT030 OVC040
     FM271000 32008KT P6SM BKN019 OVC025
     FM272000 34014KT P6SM -SN OVC030
     FM280000 35008KT P6SM BKN035
     FM280600 35011KT P6SM OVC050=



000
FTUS41 KCLE 270500
TAFCAK
TAF
KCAK 270521Z 2706/2806 27006KT P6SM SCT020 OVC045
     FM271000 30008KT P6SM OVC018
     FM271700 31010KT P6SM BKN035
     FM280000 35010KT P6SM OVC050
     FM280300 34010KT P6SM OVC100=



000
FTUS41 KCLE 270500
TAFYNG
TAF
KYNG 270521Z 2706/2806 VRB03KT 5SM BR OVC045
     FM271000 31010KT P6SM BKN018
     FM271700 31010KT P6SM OVC025
     FM280300 31009KT P6SM OVC100=



000
FTUS41 KCLE 270500
TAFFDY
TAF
KFDY 270521Z 2706/2806 32007KT P6SM OVC045
     FM271100 33010KT P6SM BKN020
     FM271500 31009KT P6SM BKN035
     FM280000 36009KT P6SM BKN050=



000
FTUS41 KCLE 270500
TAFCLE
TAF
KCLE 270521Z 2706/2812 30008KT P6SM SCT030 OVC040
     FM271000 32008KT P6SM BKN019 OVC025
     FM272000 34014KT P6SM -SN OVC030
     FM280000 35008KT P6SM BKN035
     FM280600 35011KT P6SM OVC050=



000
FTUS41 KCLE 270500
TAFTOL
TAF
KTOL 270521Z 2706/2806 31008KT P6SM OVC045
     FM271000 33010KT P6SM BKN020
     FM271500 31009KT P6SM BKN035
     FM280000 01007KT P6SM BKN100
     FM280400 03006KT P6SM SCT250=



000
FTUS41 KCLE 270500
TAFCAK
TAF
KCAK 270521Z 2706/2806 27006KT P6SM SCT020 OVC045
     FM271000 30008KT P6SM OVC018
     FM271700 31010KT P6SM BKN035
     FM280000 35010KT P6SM OVC050
     FM280300 34010KT P6SM OVC100=



000
FTUS41 KCLE 270500
TAFYNG
TAF
KYNG 270521Z 2706/2806 VRB03KT 5SM BR OVC045
     FM271000 31010KT P6SM BKN018
     FM271700 31010KT P6SM OVC025
     FM280300 31009KT P6SM OVC100=



000
FTUS41 KCLE 270500
TAFMFD
TAF
KMFD 270521Z 2706/2806 30007KT P6SM OVC045
     FM270900 31010KT P6SM BKN018
     FM271600 32010KT P6SM OVC022
     FM271900 33010KT P6SM BKN035
     FM272300 34008KT P6SM OVC050=



000
FTUS41 KCLE 270500
TAFFDY
TAF
KFDY 270521Z 2706/2806 32007KT P6SM OVC045
     FM271100 33010KT P6SM BKN020
     FM271500 31009KT P6SM BKN035
     FM280000 36009KT P6SM BKN050=



000
FTUS41 KCLE 270500
TAFERI
TAF
KERI 270521Z 2706/2806 24005KT 6SM BR OVC045
      TEMPO 2706/2708 5SM BR BKN004
     FM270800 29007KT P6SM VCSH SCT010 OVC015
     FM271600 30008KT 6SM -SHSN SCT015 OVC022
     FM271900 31010KT 4SM -SHSN BKN015
     FM280000 32008KT P6SM OVC050
     FM280300 31007KT P6SM BKN250=



000
FTUS41 KCLE 270300 AAC
TAFERI
TAF AMD
KERI 270342Z 2704/2724 24005KT P6SM SCT005 OVC035
      TEMPO 2704/2706 5SM BR BKN004
     FM270800 29007KT P6SM VCSH SCT010 OVC015
     FM271600 30008KT 6SM -SHSN SCT015 OVC022
     FM271900 31010KT 4SM -SHSN BKN015=



000
FTUS41 KCLE 270300 AAA
TAFCLE
TAF AMD
KCLE 270304Z 2703/2806 25006KT P6SM OVC050
     FM270500 31009KT P6SM SCT030 OVC040
     FM271000 32008KT P6SM BKN019 OVC025
     FM272000 34014KT P6SM -SN OVC030
     FM280000 35008KT P6SM BKN035=



000
FTUS41 KCLE 270200 AAB
TAFERI
TAF AMD
KERI 270249Z 2703/2724 24005KT P6SM BKN008 OVC030
      TEMPO 2703/2705 5SM BR BKN003
     FM270800 29007KT P6SM VCSH SCT010 OVC015
     FM271600 30008KT 6SM -SHSN SCT015 OVC022
     FM271900 31010KT 4SM -SHSN BKN015=



000
FTUS41 KCLE 270100 AAB
TAFYNG
TAF AMD
KYNG 270157Z 2702/2724 28006KT 6SM BR SCT008 OVC015
      TEMPO 2702/2704 BKN005
     FM270400 30007KT P6SM BKN015 OVC022
     FM271000 31010KT P6SM BKN018
     FM271700 31010KT P6SM OVC025=



000
FTUS41 KCLE 270100 AAA
TAFERI
TAF AMD
KERI 270122Z 2701/2724 26005KT P6SM SCT008 OVC025
     FM270800 29007KT P6SM VCSH SCT010 OVC018
     FM271600 30008KT 6SM -SHSN SCT015 OVC022
     FM271900 31010KT 4SM -SHSN BKN015=



000
FTUS41 KCLE 270000 AAA
TAFYNG
TAF AMD
KYNG 270048Z 2701/2724 30006KT P6SM SCT008 OVC015
     FM270400 30007KT P6SM SCT015 OVC035
     FM271000 31010KT P6SM BKN018
     FM271700 31010KT P6SM OVC025=



000
FTUS41 KCLE 270000 AAA
TAFYNG
TAF AMD
KYNG 270048Z 2701/2724 30006KT P6SM SCT008 OVC015
     FM270400 30007KT P6SM SCT015 OVC035
     FM271000 31010KT P6SM BKN018
     FM271700 31010KT P6SM OVC025=



000
FTUS41 KCLE 270000 AAA
TAFCAK
TAF AMD
KCAK 270046Z 2701/2724 27006KT P6SM SCT008 OVC035
     FM271000 30008KT P6SM OVC018
     FM271700 31010KT P6SM BKN035=



000
FTUS41 KCLE 270000 AAA
TAFCAK
TAF AMD
KCAK 270046Z 2701/2724 27006KT P6SM SCT008 OVC035
     FM271000 30008KT P6SM OVC018
     FM271700 31010KT P6SM BKN035=



000
FTUS41 KCLE 262300
TAFERI
TAF
KERI 262335Z 2700/2724 26005KT 6SM BR OVC005
     FM270300 24005KT P6SM OVC008
     FM270500 29007KT P6SM VCSH SCT008 OVC018
     FM271600 30008KT 6SM -SHSN SCT015 OVC022
     FM271900 31010KT 4SM -SHSN BKN015=



000
FTUS41 KCLE 262300
TAFMFD
TAF
KMFD 262335Z 2700/2724 30006KT P6SM SCT015 OVC035
     FM270900 31010KT P6SM BKN018
     FM271600 32010KT P6SM OVC022
     FM271900 33010KT P6SM BKN035=



000
FTUS41 KCLE 262300
TAFTOL
TAF
KTOL 262335Z 2700/2724 29010KT P6SM BKN045
     FM271000 33010KT P6SM BKN020
     FM271500 31009KT P6SM BKN035=



000
FTUS41 KCLE 262300
TAFFDY
TAF
KFDY 262335Z 2700/2724 30010KT P6SM SCT045
     FM270300 30007KT P6SM SCT045
     FM271100 33010KT P6SM BKN020
     FM271500 31009KT P6SM BKN035=



000
FTUS41 KCLE 262300
TAFCLE
TAF
KCLE 262335Z 2700/2806 27010KT P6SM SCT025 OVC035
     FM270300 31009KT P6SM BKN040
     FM271100 32008KT P6SM BKN019 OVC025
     FM272000 34014KT P6SM -SN OVC030
     FM280000 35008KT P6SM BKN035=



000
FTUS41 KCLE 262300
TAFCAK
TAF
KCAK 262335Z 2700/2724 31008KT P6SM OVC008
     FM270200 28006KT P6SM OVC015
     FM270500 30008KT P6SM BKN022
     FM271000 30008KT P6SM OVC018
     FM271700 31010KT P6SM BKN035=



000
FTUS41 KCLE 262300
TAFYNG
TAF
KYNG 262335Z 2700/2724 30006KT 6SM BR OVC007
     FM270500 30007KT P6SM OVC015
      TEMPO 2710/2713 OVC009
     FM271700 31010KT P6SM OVC025=



000
FTUS41 KCLE 262300
TAFYNG
TAF
KYNG 262335Z 2700/2724 30006KT 6SM BR OVC007
     FM270500 30007KT P6SM OVC015
      TEMPO 2710/2713 OVC009
     FM271700 31010KT P6SM OVC025=



000
FTUS41 KCLE 262300
TAFMFD
TAF
KMFD 262335Z 2700/2724 30006KT P6SM SCT015 OVC035
     FM270900 31010KT P6SM BKN018
     FM271600 32010KT P6SM OVC022
     FM271900 33010KT P6SM BKN035=



000
FTUS41 KCLE 262300
TAFTOL
TAF
KTOL 262335Z 2700/2724 29010KT P6SM BKN045
     FM271000 33010KT P6SM BKN020
     FM271500 31009KT P6SM BKN035=



000
FTUS41 KCLE 262300
TAFERI
TAF
KERI 262335Z 2700/2724 26005KT 6SM BR OVC005
     FM270300 24005KT P6SM OVC008
     FM270500 29007KT P6SM VCSH SCT008 OVC018
     FM271600 30008KT 6SM -SHSN SCT015 OVC022
     FM271900 31010KT 4SM -SHSN BKN015=



000
FTUS41 KCLE 262300
TAFCAK
TAF
KCAK 262335Z 2700/2724 31008KT P6SM OVC008
     FM270200 28006KT P6SM OVC015
     FM270500 30008KT P6SM BKN022
     FM271000 30008KT P6SM OVC018
     FM271700 31010KT P6SM BKN035=



000
FTUS41 KCLE 262300
TAFFDY
TAF
KFDY 262335Z 2700/2724 30010KT P6SM SCT045
     FM270300 30007KT P6SM SCT045
     FM271100 33010KT P6SM BKN020
     FM271500 31009KT P6SM BKN035=



000
FTUS41 KCLE 262300
TAFCLE
TAF
KCLE 262335Z 2700/2806 27010KT P6SM SCT025 OVC035
     FM270300 31009KT P6SM BKN040
     FM271100 32008KT P6SM BKN019 OVC025
     FM272000 34014KT P6SM -SN OVC030
     FM280000 35008KT P6SM BKN035=



000
FTUS41 KCLE 262100 AAB
TAFCLE
TAF AMD
KCLE 262113Z 2621/2724 29005KT 6SM BR OVC007
     FM262300 30007KT P6SM OVC015
     FM270000 30010KT P6SM BKN030
     FM270300 31009KT P6SM BKN040
     FM271100 32008KT P6SM BKN019 OVC025
     FM272000 34014KT P6SM -SN OVC030=



000
FTUS41 KCLE 262100 AAB
TAFCLE
TAF AMD
KCLE 262113Z 2621/2724 29005KT 6SM BR OVC007
     FM262300 30007KT P6SM OVC015
     FM270000 30010KT P6SM BKN030
     FM270300 31009KT P6SM BKN040
     FM271100 32008KT P6SM BKN019 OVC025
     FM272000 34014KT P6SM -SN OVC030=



000
FTUS41 KCLE 262000 AAA
TAFERI
TAF AMD
KERI 262038Z 2621/2718 VRB04KT 4SM -SN BR OVC004
      TEMPO 2621/2623 2SM -SN BR OVC002
     FM262300 30006KT 5SM -SN BR OVC005
     FM270000 30008KT P6SM OVC015=



000
FTUS41 KCLE 262000 AAA
TAFERI
TAF AMD
KERI 262038Z 2621/2718 VRB04KT 4SM -SN BR OVC004
      TEMPO 2621/2623 2SM -SN BR OVC002
     FM262300 30006KT 5SM -SN BR OVC005
     FM270000 30008KT P6SM OVC015=



000
FTUS41 KCLE 261900 AAA
TAFCLE
TAF AMD
KCLE 261957Z 2620/2724 33010KT P6SM OVC007
     FM262100 30010KT P6SM OVC015
     FM262230 30010KT P6SM BKN030
     FM270200 31009KT P6SM BKN040
     FM271100 32008KT P6SM BKN019 OVC025
     FM272000 34014KT P6SM -SN OVC030=



000
FTUS41 KCLE 261800 AAA
TAFYNG
TAF AMD
KYNG 261853Z 2619/2718 32006KT 5SM BR VCSH OVC009
     FM262300 31006KT 6SM BR OVC015
     FM270400 29007KT P6SM OVC025
      TEMPO 2706/2710 OVC035
     FM271100 32008KT P6SM OVC019
     FM271700 33008KT P6SM OVC030=



000
FTUS41 KCLE 261800 AAA
TAFYNG
TAF AMD
KYNG 261853Z 2619/2718 32006KT 5SM BR VCSH OVC009
     FM262300 31006KT 6SM BR OVC015
     FM270400 29007KT P6SM OVC025
      TEMPO 2706/2710 OVC035
     FM271100 32008KT P6SM OVC019
     FM271700 33008KT P6SM OVC030=



000
FTUS41 KCLE 261700
TAFFDY
TAF
KFDY 261739Z 2618/2718 32010KT 6SM BR OVC015
     FM261900 30010KT P6SM OVC025
     FM262100 28010KT P6SM BKN045
     FM270300 32010KT P6SM SCT045
     FM271300 33010KT P6SM OVC020=



000
FTUS41 KCLE 261700
TAFMFD
TAF
KMFD 261739Z 2618/2718 33007KT 6SM BR VCSH BKN006 OVC040
     FM262100 34006KT P6SM OVC020
     FM270000 29008KT P6SM OVC040
     FM270600 30006KT P6SM SCT040
     FM271100 31010KT P6SM BKN019
     FM271500 31010KT P6SM OVC020=



000
FTUS41 KCLE 261700
TAFCAK
TAF
KCAK 261739Z 2618/2718 35008KT 5SM -RA BR BKN008 OVC010
     FM262100 32008KT 3SM BR VCSH SCT008 OVC015
     FM262300 30008KT P6SM OVC025
     FM270300 28007KT P6SM OVC035
     FM271100 32008KT P6SM OVC019
     FM271700 33008KT P6SM OVC030=



000
FTUS41 KCLE 261700
TAFMFD
TAF
KMFD 261739Z 2618/2718 33007KT 6SM BR VCSH BKN006 OVC040
     FM262100 34006KT P6SM OVC020
     FM270000 29008KT P6SM OVC040
     FM270600 30006KT P6SM SCT040
     FM271100 31010KT P6SM BKN019
     FM271500 31010KT P6SM OVC020=



000
FTUS41 KCLE 261700
TAFERI
TAF
KERI 261739Z 2618/2718 36008KT 1SM -SN BR OVC002
     FM262200 30006KT 5SM -SN BR OVC005
     FM262300 30008KT P6SM OVC015=



000
FTUS41 KCLE 261700
TAFCAK
TAF
KCAK 261739Z 2618/2718 35008KT 5SM -RA BR BKN008 OVC010
     FM262100 32008KT 3SM BR VCSH SCT008 OVC015
     FM262300 30008KT P6SM OVC025
     FM270300 28007KT P6SM OVC035
     FM271100 32008KT P6SM OVC019
     FM271700 33008KT P6SM OVC030=



000
FTUS41 KCLE 261700
TAFYNG
TAF
KYNG 261739Z 2618/2718 34009KT 1SM -RA BR OVC004
     FM262000 32006KT 2SM BR VCSH OVC009
     FM262300 31006KT 6SM BR OVC015
     FM270400 29007KT P6SM OVC025
      TEMPO 2706/2710 OVC035
     FM271100 32008KT P6SM OVC019
     FM271700 33008KT P6SM OVC030=



000
FTUS41 KCLE 261700
TAFERI
TAF
KERI 261739Z 2618/2718 36008KT 1SM -SN BR OVC002
     FM262200 30006KT 5SM -SN BR OVC005
     FM262300 30008KT P6SM OVC015=



000
FTUS41 KCLE 261700
TAFCLE
TAF
KCLE 261739Z 2618/2724 34008KT 1SM -SNRA BR OVC004
     FM261830 34010KT 5SM -SNRA BR OVC007
     FM262100 30010KT P6SM OVC015
     FM262230 30010KT P6SM BKN030
     FM270200 31009KT P6SM BKN040
     FM271100 32008KT P6SM BKN019 OVC025
     FM272000 34014KT P6SM -SN OVC030=



000
FTUS41 KCLE 261700
TAFYNG
TAF
KYNG 261739Z 2618/2718 34009KT 1SM -RA BR OVC004
     FM262000 32006KT 2SM BR VCSH OVC009
     FM262300 31006KT 6SM BR OVC015
     FM270400 29007KT P6SM OVC025
      TEMPO 2706/2710 OVC035
     FM271100 32008KT P6SM OVC019
     FM271700 33008KT P6SM OVC030=



000
FTUS41 KCLE 261700
TAFTOL
TAF
KTOL 261739Z 2618/2718 30010KT P6SM SCT015 OVC025
     FM261900 30010KT P6SM BKN040
      TEMPO 2705/2709 SCT040
     FM271200 33010KT P6SM OVC020=



000
FTUS41 KCLE 261700
TAFTOL
TAF
KTOL 261739Z 2618/2718 30010KT P6SM SCT015 OVC025
     FM261900 30010KT P6SM BKN040
      TEMPO 2705/2709 SCT040
     FM271200 33010KT P6SM OVC020=



000
FTUS41 KCLE 261500 AAB
TAFCAK
TAF AMD
KCAK 261536Z 2616/2712 36008KT 2SM -RA BR BKN008 OVC010
     FM261900 32008KT 3SM BR VCSH OVC015
     FM262200 30008KT P6SM OVC025
     FM270300 28007KT P6SM OVC035=



000
FTUS41 KCLE 261500 AAB
TAFMFD
TAF AMD
KMFD 261533Z 2616/2712 33007KT 3SM -RA BR OVC005
     FM261630 33007KT 3SM -SHRA BR OVC006
     FM262100 34006KT P6SM OVC012
     FM270000 27008KT P6SM OVC050
     FM270600 30006KT P6SM OVC050=



000
FTUS41 KCLE 261500 AAD
TAFTOL
TAF AMD
KTOL 261501Z 2615/2712 30006KT 2SM -SN BR OVC005
     FM261600 31005KT 3SM BR VCSH OVC012
     FM261800 30010KT P6SM OVC025
     FM262000 28010G15KT P6SM BKN045
     FM270200 30010KT P6SM BKN250=



000
FTUS41 KCLE 261500 AAA
TAFERI
TAF AMD
KERI 261500Z 2615/2712 36008KT 2SM -SNRA BR OVC005
     FM262000 30006KT 3SM -SN BR OVC010
     FM262300 26008KT P6SM OVC015
     FM270400 26008KT P6SM OVC050=



000
FTUS41 KCLE 261500 AAA
TAFERI
TAF AMD
KERI 261500Z 2615/2712 36008KT 2SM -SNRA BR OVC005
     FM262000 30006KT 3SM -SN BR OVC010
     FM262300 26008KT P6SM OVC015
     FM270400 26008KT P6SM OVC050=



000
FTUS41 KCLE 261400 AAA
TAFCLE
TAF AMD
KCLE 261402Z 2614/2718 03007KT 2SM -RA BR OVC005
     FM261600 35008KT 2SM -SNRA BR OVC007
     FM261900 30009KT P6SM OVC015
     FM270000 31009KT P6SM OVC050
     FM271100 30008KT P6SM OVC025=



000
FTUS41 KCLE 261300 AAC
TAFTOL
TAF AMD
KTOL 261400Z 2614/2712 32002KT 1SM -SN BR OVC006
     FM261430 32002KT 2SM -SN BR OVC006
     FM261500 31005KT 3SM BR VCSH OVC012
     FM261800 30010KT P6SM OVC025
     FM262000 28010G15KT P6SM BKN045
     FM270200 30010KT P6SM BKN250=



000
FTUS41 KCLE 261300 AAC
TAFTOL
TAF AMD
KTOL 261400Z 2614/2712 32002KT 1SM -SN BR OVC006
     FM261430 32002KT 2SM -SN BR OVC006
     FM261500 31005KT 3SM BR VCSH OVC012
     FM261800 30010KT P6SM OVC025
     FM262000 28010G15KT P6SM BKN045
     FM270200 30010KT P6SM BKN250=



000
FTUS41 KCLE 261300 AAA
TAFYNG
TAF AMD
KYNG 261305Z 2613/2712 01009KT 1SM -RA BR OVC004
     FM262000 32006KT 2SM BR VCSH OVC009
     FM262300 29006KT 6SM BR OVC015
     FM270400 29007KT P6SM OVC025=



000
FTUS41 KCLE 261300 AAA
TAFCAK
TAF AMD
KCAK 261302Z 2613/2712 36008KT 1SM -RA BR BKN004 OVC010
     FM261900 32008KT 3SM BR VCSH OVC015
     FM262200 30008KT P6SM OVC025
     FM270300 28007KT P6SM OVC035=



000
FTUS41 KCLE 261200 AAB
TAFTOL
TAF AMD
KTOL 261250Z 2613/2712 VRB03KT 1/4SM -SN FG OVC004
     FM261315 32002KT 1SM -SN BR OVC006
     FM261400 32002KT 2SM -SN BR OVC006
     FM261500 31005KT 3SM BR VCSH OVC012
     FM261800 30010KT P6SM OVC025
     FM262000 28010G15KT P6SM BKN045
     FM270200 30010KT P6SM BKN250=



000
FTUS41 KCLE 261200 AAB
TAFTOL
TAF AMD
KTOL 261250Z 2613/2712 VRB03KT 1/4SM -SN FG OVC004
     FM261315 32002KT 1SM -SN BR OVC006
     FM261400 32002KT 2SM -SN BR OVC006
     FM261500 31005KT 3SM BR VCSH OVC012
     FM261800 30010KT P6SM OVC025
     FM262000 28010G15KT P6SM BKN045
     FM270200 30010KT P6SM BKN250=



000
FTUS41 KCLE 261100 AAA
TAFMFD
TAF AMD
KMFD 261151Z 2612/2712 03006KT 2SM -RA BR OVC004
     FM261400 33007KT 2SM -RA BR OVC003
     FM262100 34006KT P6SM OVC012
     FM270000 27008KT P6SM OVC050
     FM270600 30006KT P6SM OVC050=



000
FTUS41 KCLE 261100 AAA
TAFMFD
TAF AMD
KMFD 261151Z 2612/2712 03006KT 2SM -RA BR OVC004
     FM261400 33007KT 2SM -RA BR OVC003
     FM262100 34006KT P6SM OVC012
     FM270000 27008KT P6SM OVC050
     FM270600 30006KT P6SM OVC050=



000
FTUS41 KCLE 261100 AAA
TAFTOL
TAF AMD
KTOL 261148Z 2612/2712 VRB03KT 2SM -SN BR OVC008
     FM261800 30010KT P6SM OVC025
     FM262000 28010G15KT P6SM BKN045
     FM270200 30010KT P6SM BKN250=



000
FTUS41 KCLE 261100 AAA
TAFTOL
TAF AMD
KTOL 261148Z 2612/2712 VRB03KT 2SM -SN BR OVC008
     FM261800 30010KT P6SM OVC025
     FM262000 28010G15KT P6SM BKN045
     FM270200 30010KT P6SM BKN250=



000
FTUS41 KCLE 261100
TAFTOL
TAF
KTOL 261122Z 2612/2712 VRB03KT 3SM -RASN BR OVC008
     FM261600 30008KT 4SM -SN BR OVC015
     FM261800 30010KT P6SM OVC025
     FM262000 28010G15KT P6SM BKN045
     FM270200 30010KT P6SM BKN250=



000
FTUS41 KCLE 261100
TAFFDY
TAF
KFDY 261122Z 2612/2712 VRB03KT 2SM -RA BR OVC007
     FM261500 33009KT 2SM -RA BR OVC015
     FM261800 30010KT 3SM BR OVC015
     FM261900 30010KT P6SM OVC025
     FM262100 28010KT P6SM BKN045
     FM270300 32010KT P6SM BKN250=



000
FTUS41 KCLE 261100
TAFCAK
TAF
KCAK 261122Z 2612/2712 01006KT 4SM -RA BR OVC009
     FM261300 36008KT 2SM -RA BR OVC008
     FM261900 32008KT P6SM OVC015
     FM262200 30008KT P6SM OVC025
     FM270300 28007KT P6SM OVC035=



000
FTUS41 KCLE 261100
TAFMFD
TAF
KMFD 261122Z 2612/2712 23004KT 2SM -RA BR OVC006
     FM261400 33007KT 2SM -RA BR OVC003
     FM262100 34006KT P6SM OVC012
     FM270000 27008KT P6SM OVC050
     FM270600 30006KT P6SM OVC050=



000
FTUS41 KCLE 261100
TAFERI
TAF
KERI 261122Z 2612/2712 VRB03KT 5SM -RA BR OVC007
     FM261300 36008KT 2SM -RA BR OVC007
     FM262300 26008KT P6SM OVC015
     FM270400 26008KT P6SM OVC050=



000
FTUS41 KCLE 261100
TAFYNG
TAF
KYNG 261122Z 2612/2712 01009KT 2SM -RA BR OVC008
     FM261400 35008KT 1SM -RA BR OVC008
     FM262300 29006KT 6SM BR OVC015
     FM270400 29007KT P6SM OVC025=



000
FTUS41 KCLE 261100
TAFCLE
TAF
KCLE 261122Z 2612/2718 03007KT 2SM -RA BR OVC007
     FM261900 30009KT P6SM OVC015
     FM270000 31009KT P6SM OVC050
     FM271100 30008KT P6SM OVC025=



000
FTUS41 KCLE 260900 AAC
TAFCLE
TAF AMD
KCLE 260940Z 2610/2712 36010KT 5SM -RA BR OVC007
     FM261300 03005KT 2SM -RASN BR OVC007
     FM261800 32009KT P6SM OVC012
     FM262100 31009KT P6SM OVC050
     FM270000 27008KT P6SM OVC050
     FM270300 29010G15KT P6SM OVC050=



000
FTUS41 KCLE 260800 AAB
TAFCLE
TAF AMD
KCLE 260853Z 2609/2712 31006KT 5SM BR BKN012 OVC080
     FM261200 33009KT 2SM -RASN BR OVC008
     FM261300 03005KT 1 1/2SM -SN BR OVC008
     FM261800 32009KT P6SM OVC012
     FM262100 31009KT P6SM OVC050
     FM270000 27008KT P6SM OVC050
     FM270300 29010G15KT P6SM OVC050=



000
FTUS41 KCLE 260800 AAB
TAFCLE
TAF AMD
KCLE 260853Z 2609/2712 31006KT 5SM BR BKN012 OVC080
     FM261200 33009KT 2SM -RASN BR OVC008
     FM261300 03005KT 1 1/2SM -SN BR OVC008
     FM261800 32009KT P6SM OVC012
     FM262100 31009KT P6SM OVC050
     FM270000 27008KT P6SM OVC050
     FM270300 29010G15KT P6SM OVC050=



000
FTUS41 KCLE 260800 AAB
TAFERI
TAF AMD
KERI 260852Z 2609/2706 26010G15KT 5SM BR OVC007
     FM261400 36005KT 5SM -RA BR OVC007
     FM261600 36008KT 2SM -RASN BR OVC008
     FM262100 32008KT 1SM -SN BR OVC008
     FM262300 26008KT P6SM OVC025
     FM270400 26008KT P6SM OVC050=



000
FTUS41 KCLE 260800 AAA
TAFYNG
TAF AMD
KYNG 260851Z 2609/2706 01006KT 5SM BR OVC008
     FM261200 01005KT 5SM -RA BR OVC008
     FM261400 35008KT 1SM -RA BR OVC008
     FM261800 32008KT 2SM -RA BR OVC012
     FM270000 29006KT P6SM OVC025
     FM270400 28007KT P6SM OVC035=



000
FTUS41 KCLE 260800 AAB
TAFMFD
TAF AMD
KMFD 260850Z 2609/2706 23004KT 4SM -RA BR OVC004
     FM261100 VRB03KT 5SM -RA BR OVC007
      TEMPO 2611/2612 2SM -RA BR OVC004
     FM261200 03005KT 2SM -RA BR OVC008
     FM262000 34006KT 3SM -RASN BR OVC012
     FM270100 27008KT P6SM OVC050=



000
FTUS41 KCLE 260700 AAA
TAFERI
TAF AMD
KERI 260712Z 2607/2706 26010G15KT 6SM BR OVC015
     FM261400 36005KT 5SM -RA BR OVC015
     FM261600 36008KT 2SM -RASN BR OVC008
     FM262100 32008KT 1SM -SN BR OVC008
     FM262300 26008KT P6SM OVC025
     FM270400 26008KT P6SM OVC050=



000
FTUS41 KCLE 260700 AAA
TAFERI
TAF AMD
KERI 260712Z 2607/2706 26010G15KT 6SM BR OVC015
     FM261400 36005KT 5SM -RA BR OVC015
     FM261600 36008KT 2SM -RASN BR OVC008
     FM262100 32008KT 1SM -SN BR OVC008
     FM262300 26008KT P6SM OVC025
     FM270400 26008KT P6SM OVC050=



000
FTUS41 KCLE 260700 AAA
TAFCAK
TAF AMD
KCAK 260711Z 2607/2706 23005KT 4SM BR SCT035 BKN250
     FM260900 VRB04KT 3SM BR SCT025 OVC045
     FM261100 01005KT 5SM -RA BR OVC025
     FM261300 36008KT 1SM -RA BR OVC008
     FM261600 32008KT 3SM -RA BR OVC012
     FM262200 30008KT P6SM OVC025
     FM270300 28007KT P6SM OVC035=



000
FTUS41 KCLE 260700 AAA
TAFCLE
TAF AMD
KCLE 260710Z 2607/2712 21006KT 3SM BR BKN012 OVC080
     FM261200 33009KT 2SM -RASN BR OVC008
     FM261300 03005KT 1 1/2SM -SN BR OVC008
     FM261800 32009KT P6SM OVC012
     FM262100 31009KT P6SM OVC050
     FM270000 27008KT P6SM OVC050
     FM270300 29010G15KT P6SM OVC050=



000
FTUS41 KCLE 260700 AAA
TAFMFD
TAF AMD
KMFD 260709Z 2607/2706 23004KT 4SM BR SCT025 BKN050
     FM261100 VRB03KT 5SM -RA BR SCT025 OVC050
      TEMPO 2611/2612 2SM -RA BR OVC025
     FM261200 03005KT 2SM -RA BR OVC008
     FM262000 34006KT 3SM -RASN BR OVC012
     FM270100 27008KT P6SM OVC050=



000
FTUS41 KCLE 260700 AAA
TAFMFD
TAF AMD
KMFD 260709Z 2607/2706 23004KT 4SM BR SCT025 BKN050
     FM261100 VRB03KT 5SM -RA BR SCT025 OVC050
      TEMPO 2611/2612 2SM -RA BR OVC025
     FM261200 03005KT 2SM -RA BR OVC008
     FM262000 34006KT 3SM -RASN BR OVC012
     FM270100 27008KT P6SM OVC050=



000
FTUS41 KCLE 260500
TAFCLE
TAF
KCLE 260529Z 2606/2712 21006KT P6SM SCT120 BKN250
     FM261200 33009KT 2SM -RASN BR OVC008
     FM261300 03005KT 1 1/2SM -SN BR OVC008
     FM261800 32009KT P6SM OVC012
     FM262100 31009KT P6SM OVC050
     FM270000 27008KT P6SM OVC050
     FM270300 29010G15KT P6SM OVC050=



000
FTUS41 KCLE 260500
TAFFDY
TAF
KFDY 260529Z 2606/2706 24006KT 5SM BR SCT020 OVC045
     FM260800 35005KT 5SM -RA BR OVC025
      TEMPO 2609/2611 3SM -RA BR OVC012
     FM261100 36006KT 2SM -RA BR OVC008
     FM261700 30008KT 6SM -RASN BR OVC015
     FM261900 30010KT P6SM OVC025
     FM262100 28010KT P6SM BKN045
     FM270400 29009KT P6SM SKC=



000
FTUS41 KCLE 260500
TAFTOL
TAF
KTOL 260529Z 2606/2706 27010KT 6SM BR SCT015 OVC045
      TEMPO 2606/2607 OVC015
     FM260700 30004KT 5SM -RA BR OVC015
     FM261100 35007KT 2SM -RASN BR OVC008
     FM261600 30008KT P6SM OVC015
     FM261800 30010KT P6SM OVC025
     FM262000 28010KT P6SM BKN045
     FM270200 28010KT P6SM SKC=



000
FTUS41 KCLE 260500
TAFYNG
TAF
KYNG 260529Z 2606/2706 23005KT P6SM SCT035 BKN250
     FM261000 VRB04KT P6SM SCT025 OVC045
     FM261200 01005KT 5SM -RA BR OVC025
     FM261400 35008KT 1SM -RA BR OVC008
     FM261800 32008KT 2SM -RA BR OVC012
     FM270000 29006KT P6SM OVC025
     FM270400 28007KT P6SM OVC035=



000
FTUS41 KCLE 260500
TAFCAK
TAF
KCAK 260529Z 2606/2706 23005KT 6SM BR SCT035 BKN250
     FM260900 VRB04KT P6SM SCT025 OVC045
     FM261100 01005KT 5SM -RA BR OVC025
     FM261300 36008KT 1SM -RA BR OVC008
     FM261600 32008KT 3SM -RA BR OVC012
     FM262200 30008KT P6SM OVC025
     FM270300 28007KT P6SM OVC035=



000
FTUS41 KCLE 260500
TAFMFD
TAF
KMFD 260529Z 2606/2706 23004KT P6SM SCT025 BKN050
     FM261100 VRB03KT 5SM -RA BR SCT025 OVC050
      TEMPO 2611/2612 2SM -RA BR OVC025
     FM261200 03005KT 2SM -RA BR OVC008
     FM262000 34006KT 3SM -RASN BR OVC012
     FM270100 27008KT P6SM OVC050=



000
FTUS41 KCLE 260500
TAFERI
TAF
KERI 260529Z 2606/2706 22006KT 6SM BR SCT025 OVC045
     FM261400 36005KT 5SM -RA BR OVC025
     FM261600 36008KT 2SM -RASN BR OVC008
     FM262100 32008KT 1SM -SN BR OVC008
     FM262300 26008KT P6SM OVC025
     FM270400 26008KT P6SM OVC050=



000
FTUS41 KCLE 260300 AAA
TAFTOL
TAF AMD
KTOL 260349Z 2604/2624 25007KT P6SM SCT015 OVC045
      TEMPO 2604/2608 OVC015
     FM260800 30004KT 5SM -RA BR OVC015
     FM261200 33007KT 3SM -RASN BR OVC008
     FM261600 30008KT 6SM -SN BR OVC015
     FM261800 30010KT P6SM OVC025
     FM262000 28010KT P6SM BKN045=



000
FTUS41 KCLE 260300 AAA
TAFTOL
TAF AMD
KTOL 260349Z 2604/2624 25007KT P6SM SCT015 OVC045
      TEMPO 2604/2608 OVC015
     FM260800 30004KT 5SM -RA BR OVC015
     FM261200 33007KT 3SM -RASN BR OVC008
     FM261600 30008KT 6SM -SN BR OVC015
     FM261800 30010KT P6SM OVC025
     FM262000 28010KT P6SM BKN045=



000
FTUS41 KCLE 260300 AAA
TAFCLE
TAF AMD
KCLE 260308Z 2603/2706 22006KT P6SM SCT120 BKN250
     FM260800 27005KT P6SM SCT025 OVC045
     FM261000 30007KT 5SM -RA BR OVC025
     FM261200 33009KT 2SM -RASN BR OVC008
     FM261600 32009KT 3SM -RASN BR OVC012
     FM262000 30009KT P6SM OVC025
     FM262200 28007KT P6SM OVC045=



    US Dept of Commerce
    National Oceanic and Atmospheric Administration
    National Weather Service
    1325 East West Highway
    Silver Spring, MD 20910
    Page Author: NWS Internet Services Team
Disclaimer
Information Quality
Credits
Glossary
Privacy Policy
Freedom of Information Act (FOIA)
About Us
Career Opportunities